Data for 12/30/2015

Time Sea-Level Adjusted Pressure Absolute Pressure Temperature Relative Humidity Dew Point   
(mb) (inHg) (mb) (inHg) (C) (F) (%) (C) (F)
00:05 1017 30.03 846 24.98 -11.7 11 87 -13.5 7.7
00:10 1017 30.03 846 24.98 -11.5 11.3 86 -13.4 7.9
00:15 1017 30.03 846 24.98 -11.6 11.1 85 -13.7 7.3
00:20 1017 30.03 846 24.98 -11.7 11 87 -13.4 7.9
00:25 1017 30.03 846 24.98 -11.6 11.1 85 -13.7 7.3
00:30 1017 30.03 846 24.98 -12 10.4 84 -14.1 6.6
00:35 1017 30.03 846 24.98 -12.3 9.9 86 -14.2 6.4
00:40 1017 30.03 847 25.01 -12.1 10.2 86 -14.1 6.7
00:45 1017 30.03 847 25.01 -12 10.3 85 -14.1 6.7
00:50 1017 30.03 847 25.01 -12.1 10.3 86 -14 6.7
00:55 1017 30.03 847 25.01 -11.9 10.5 85 -14 6.9
01:00 1017 30.03 847 25.01 -12 10.4 85 -14.1 6.7
01:05 1017 30.03 847 25.01 -12 10.4 85 -14 6.8
01:10 1017 30.03 847 25.01 -11.9 10.6 84 -14 6.8
01:15 1017 30.03 847 25.01 -11.8 10.8 83 -14.1 6.6
01:20 1017 30.03 847 25.01 -12 10.5 83 -14.3 6.2
01:25 1017 30.03 847 25.01 -12.3 9.9 83 -14.5 5.8
01:30 1017 30.03 847 25.01 -12.3 9.9 86 -14.2 6.5
01:35 1017 30.03 847 25.01 -12 10.5 84 -14.1 6.6
01:40 1017 30.03 847 25.01 -12.1 10.2 86 -14.1 6.7
01:45 1017 30.03 847 25.01 -12 10.3 85 -14 6.8
01:50 1017 30.03 847 25.01 -12 10.3 85 -14.1 6.6
01:55 1017 30.03 847 25.01 -11.9 10.6 85 -13.9 7
02:00 1017 30.03 847 25.01 -11.9 10.6 86 -13.8 7.2
02:05 1017 30.03 847 25.01 -11.8 10.8 85 -13.7 7.3
02:10 1017 30.03 847 25.01 -11.6 11.1 85 -13.6 7.4
02:15 1017 30.03 847 25.01 -11.4 11.4 84 -13.6 7.5
02:20 1017 30.03 847 25.01 -11.4 11.5 83 -13.7 7.4
02:25 1017 30.03 847 25.01 -11.4 11.5 84 -13.6 7.6
02:30 1017 30.03 847 25.01 -11.5 11.4 84 -13.7 7.4
02:35 1017 30.03 847 25.01 -11.6 11 84 -13.9 7
02:40 1018 30.06 847 25.01 -11.8 10.8 83 -14.1 6.7
02:45 1017 30.03 847 25.01 -11.8 10.8 85 -13.8 7.1
02:50 1017 30.03 847 25.01 -11.6 11.1 85 -13.7 7.3
02:55 1018 30.06 847 25.01 -11.6 11.2 84 -13.7 7.4
03:00 1018 30.06 847 25.01 -11.6 11.2 85 -13.6 7.4
03:05 1018 30.06 847 25.01 -11.5 11.2 85 -13.6 7.6
03:10 1018 30.06 847 25.01 -11.5 11.2 85 -13.5 7.6
03:15 1018 30.06 847 25.01 -11.5 11.3 85 -13.5 7.7
03:20 1018 30.06 847 25.01 -11.5 11.3 85 -13.5 7.8
03:25 1018 30.06 847 25.01 -11.3 11.6 86 -13.2 8.2
03:30 1018 30.06 847 25.01 -11.2 11.9 85 -13.2 8.3
03:35 1018 30.06 847 25.01 -11.2 11.9 86 -13.1 8.4
03:40 1018 30.06 847 25.01 -11.1 12 85 -13.1 8.4
03:45 1018 30.06 848 25.04 -11.2 11.9 85 -13.3 8.1
03:50 1018 30.06 848 25.04 -11.3 11.6 84 -13.4 7.8
03:55 1018 30.06 848 25.04 -11.4 11.4 85 -13.4 7.8
04:00 1018 30.06 848 25.04 -11.5 11.3 85 -13.5 7.7
04:05 1018 30.06 848 25.04 -11.6 11.2 86 -13.5 7.7
04:10 1018 30.06 848 25.04 -11.6 11 85 -13.6 7.4
04:15 1018 30.06 848 25.04 -11.7 10.9 86 -13.7 7.4
04:20 1019 30.09 848 25.04 -11.8 10.8 86 -13.7 7.4
04:25 1019 30.09 848 25.04 -11.8 10.8 86 -13.7 7.4
04:30 1019 30.09 848 25.04 -11.8 10.8 86 -13.6 7.4
04:35 1019 30.09 848 25.04 -11.8 10.9 87 -13.5 7.7
04:40 1019 30.09 848 25.04 -11.7 11 87 -13.4 7.8
04:45 1019 30.09 848 25.04 -11.7 11 87 -13.5 7.7
04:50 1019 30.09 848 25.04 -11.6 11 86 -13.5 7.7
04:55 1019 30.09 848 25.04 -11.7 11 86 -13.5 7.7
05:00 1019 30.09 848 25.04 -11.8 10.8 86 -13.6 7.5
05:05 1019 30.09 848 25.04 -11.8 10.8 87 -13.5 7.6
05:10 1019 30.09 848 25.04 -11.6 11.1 87 -13.3 8
05:15 1019 30.09 848 25.04 -11.5 11.3 87 -13.3 8.1
05:20 1019 30.09 848 25.04 -11.5 11.3 86 -13.4 8
05:25 1019 30.09 848 25.04 -11.6 11.1 85 -13.6 7.5
05:30 1019 30.09 848 25.04 -11.7 10.9 86 -13.7 7.4
05:35 1019 30.09 848 25.04 -11.7 11 85 -13.7 7.4
05:40 1019 30.09 848 25.04 -11.6 11.2 85 -13.6 7.5
05:45 1019 30.09 848 25.04 -11.6 11.2 85 -13.6 7.4
05:50 1019 30.09 848 25.04 -11.6 11.2 84 -13.7 7.3
05:55 1019 30.09 848 25.04 -11.7 10.9 85 -13.8 7.1
06:00 1019 30.09 848 25.04 -11.8 10.9 85 -13.8 7.2
06:05 1019 30.09 848 25.04 -11.7 10.9 85 -13.8 7.2
06:10 1019 30.09 848 25.04 -11.7 10.9 86 -13.6 7.5
06:15 1019 30.09 848 25.04 -11.6 11.1 85 -13.6 7.5
06:20 1019 30.09 848 25.04 -11.5 11.3 86 -13.5 7.7
06:25 1019 30.09 848 25.04 -11.5 11.3 85 -13.5 7.7
06:30 1019 30.09 848 25.04 -11.4 11.4 86 -13.4 7.9
06:35 1019 30.09 849 25.07 -11.4 11.4 86 -13.3 8
06:40 1019 30.09 849 25.07 -11.4 11.4 85 -13.4 7.9
06:45 1019 30.09 849 25.07 -11.6 11.2 85 -13.6 7.6
06:50 1019 30.09 849 25.07 -11.7 11 85 -13.8 7.2
06:55 1019 30.09 849 25.07 -11.7 10.9 86 -13.7 7.3
07:00 1019 30.09 849 25.07 -11.6 11.2 86 -13.4 7.8
07:05 1020 30.12 849 25.07 -11.4 11.4 86 -13.3 8.1
07:10 1020 30.12 849 25.07 -11.3 11.7 86 -13.2 8.2
07:15 1020 30.12 849 25.07 -11.2 11.8 86 -13.2 8.3
07:20 1020 30.12 849 25.07 -11.2 11.8 85 -13.3 8
07:25 1020 30.12 849 25.07 -11.4 11.4 85 -13.4 7.8
07:30 1020 30.12 849 25.07 -11.5 11.3 85 -13.5 7.7
07:35 1020 30.12 849 25.07 -11.5 11.3 85 -13.6 7.5
07:40 1020 30.12 849 25.07 -11.6 11.1 85 -13.7 7.4
07:45 1020 30.12 849 25.07 -11.6 11 86 -13.6 7.5
07:50 1020 30.12 849 25.07 -11.6 11.1 86 -13.5 7.7
07:55 1020 30.12 849 25.07 -11.6 11.2 86 -13.5 7.7
08:00 1020 30.12 849 25.07 -11.6 11.1 86 -13.5 7.7
08:05 1020 30.12 849 25.07 -11.7 11 86 -13.5 7.6
08:10 1020 30.12 849 25.07 -11.7 11 86 -13.6 7.6
08:15 1020 30.12 849 25.07 -11.6 11.1 86 -13.6 7.6
08:20 1020 30.12 849 25.07 -11.6 11.2 85 -13.6 7.6
08:25 1020 30.12 849 25.07 -11.7 11 85 -13.7 7.3
08:30 1020 30.12 849 25.07 -11.9 10.6 86 -13.8 7.1
08:35 1020 30.12 849 25.07 -12 10.4 86 -13.9 7
08:40 1020 30.12 849 25.07 -11.9 10.5 86 -13.8 7.2
08:45 1020 30.12 849 25.07 -11.8 10.7 87 -13.6 7.5
08:50 1020 30.12 849 25.07 -11.6 11 86 -13.5 7.6
08:55 1020 30.12 849 25.07 -11.6 11.1 85 -13.6 7.5
09:00 1020 30.12 850 25.1 -11.7 11 85 -13.7 7.3
09:05 1020 30.12 850 25.1 -11.8 10.8 85 -13.8 7.2
09:10 1020 30.12 850 25.1 -11.9 10.6 86 -13.8 7.2
09:15 1021 30.15 850 25.1 -11.9 10.6 86 -13.8 7.2
09:20 1021 30.15 850 25.1 -11.9 10.5 87 -13.8 7.2
09:25 1021 30.15 850 25.1 -12 10.3 85 -14 6.7
09:30 1021 30.15 850 25.1 -12.3 9.9 85 -14.4 6.1
09:35 1021 30.15 850 25.1 -12.5 9.6 86 -14.3 6.3
09:40 1021 30.15 850 25.1 -12.3 9.9 85 -14.2 6.4
09:45 1021 30.15 850 25.1 -12.3 9.8 85 -14.4 6.2
09:50 1021 30.15 850 25.1 -12.4 9.7 86 -14.3 6.2
09:55 1021 30.15 850 25.1 -12.2 10 85 -14.3 6.2
10:00 1021 30.15 850 25.1 -12.2 10.1 85 -14.2 6.4
10:05 1021 30.15 850 25.1 -12.1 10.2 85 -14.2 6.5
10:10 1021 30.15 850 25.1 -12.1 10.3 86 -14 6.8
10:15 1021 30.15 850 25.1 -12 10.4 84 -14.1 6.6
10:20 1021 30.15 850 25.1 -12 10.5 84 -14.2 6.4
10:25 1021 30.15 850 25.1 -12.1 10.3 82 -14.5 5.9
10:30 1021 30.15 851 25.13 -12.1 10.2 84 -14.3 6.3
10:35 1021 30.15 851 25.13 -11.9 10.5 84 -14.1 6.6
10:40 1021 30.15 851 25.13 -11.8 10.8 83 -14.1 6.5
10:45 1021 30.15 851 25.13 -11.5 11.3 83 -13.9 7
10:50 1022 30.18 851 25.13 -11.2 11.9 81 -13.8 7.1
10:55 1022 30.18 851 25.13 -11.1 12.1 82 -13.6 7.5
11:00 1022 30.18 851 25.13 -10.8 12.6 82 -13.2 8.2
11:05 1022 30.18 851 25.13 -10.4 13.3 80 -13.2 8.3
11:10 1022 30.18 851 25.13 -10.1 13.8 79 -13.1 8.5
11:15 1022 30.18 851 25.13 -9.8 14.3 79 -12.9 8.9
11:20 1022 30.18 851 25.13 -9.5 14.9 77 -12.8 8.9
11:25 1022 30.18 851 25.13 -9.5 14.9 78 -12.6 9.3
11:30 1022 30.18 851 25.13 -9.4 15 79 -12.5 9.5
11:35 1022 30.18 851 25.13 -9.4 15.2 78 -12.5 9.5
11:40 1022 30.18 851 25.13 -9.3 15.3 78 -12.5 9.5
11:45 1022 30.18 851 25.13 -9.3 15.4 78 -12.4 9.7
11:50 1022 30.18 851 25.13 -8.9 15.9 77 -12.3 9.8
11:55 1022 30.18 851 25.13 -9 15.8 77 -12.3 9.9
12:00 1022 30.18 851 25.13 -8.9 16 76 -12.4 9.7
12:05 1022 30.18 851 25.13 -8.7 16.3 74 -12.5 9.5
12:10 1022 30.18 851 25.13 -8.4 16.9 73 -12.4 9.7
12:15 1022 30.18 851 25.13 -8.2 17.3 72 -12.4 9.6
12:20 1022 30.18 851 25.13 -8.3 17 72 -12.5 9.4
12:25 1022 30.18 851 25.13 -8.4 16.9 72 -12.6 9.3
12:30 1022 30.18 851 25.13 -8.3 17 72 -12.6 9.4
12:35 1022 30.18 851 25.13 -8.3 17.1 72 -12.6 9.4
12:40 1022 30.18 851 25.13 -8.2 17.3 71 -12.6 9.4
12:45 1022 30.18 851 25.13 -8.1 17.4 71 -12.5 9.4
12:50 1022 30.18 851 25.13 -7.8 17.9 69 -12.6 9.2
12:55 1022 30.18 851 25.13 -7.8 18 68 -12.6 9.2
13:00 1022 30.18 851 25.13 -7.8 18 69 -12.5 9.5
13:05 1022 30.18 851 25.13 -7.7 18.2 69 -12.5 9.5
13:10 1022 30.18 851 25.13 -7.5 18.5 67 -12.6 9.4
13:15 1022 30.18 851 25.13 -7.4 18.6 67 -12.6 9.3
13:20 1022 30.18 851 25.13 -7.3 18.9 66 -12.6 9.4
13:25 1022 30.18 851 25.13 -7.6 18.3 66 -12.8 8.9
13:30 1022 30.18 851 25.13 -7.8 17.9 67 -12.9 8.8
13:35 1022 30.18 851 25.13 -8 17.7 69 -12.7 9.1
13:40 1022 30.18 851 25.13 -7.7 18.2 68 -12.7 9.2
13:45 1022 30.18 851 25.13 -8.3 17 74 -12.2 10.1
13:50 1022 30.18 851 25.13 -8.6 16.5 73 -12.7 9.1
13:55 1022 30.18 851 25.13 -8.5 16.7 74 -12.4 9.6
14:00 1022 30.18 851 25.13 -8.4 16.9 72 -12.5 9.5
14:05 1022 30.18 851 25.13 -8.2 17.3 71 -12.5 9.4
14:10 1022 30.18 851 25.13 -8.2 17.2 72 -12.4 9.7
14:15 1022 30.18 851 25.13 -8.2 17.2 72 -12.4 9.7
14:20 1022 30.18 851 25.13 -7.9 17.8 69 -12.5 9.4
14:25 1022 30.18 851 25.13 -7.9 17.8 70 -12.4 9.7
14:30 1022 30.18 851 25.13 -7.6 18.3 69 -12.4 9.6
14:35 1022 30.18 851 25.13 -7.8 18 70 -12.4 9.7
14:40 1022 30.18 851 25.13 -7.6 18.4 69 -12.3 9.9
14:45 1022 30.18 851 25.13 -7.4 18.7 69 -12.1 10.1
14:50 1022 30.18 851 25.13 -7 19.4 66 -12.3 9.8
14:55 1022 30.18 851 25.13 -6.9 19.6 66 -12.3 9.9
15:00 1022 30.18 851 25.13 -6.9 19.6 66 -12.2 10
15:05 1022 30.18 851 25.13 -7 19.4 67 -12.1 10.3
15:10 1022 30.18 851 25.13 -7.1 19.2 66 -12.4 9.7
15:15 1022 30.18 851 25.13 -7 19.4 67 -12.1 10.2
15:20 1022 30.18 851 25.13 -7.1 19.3 67 -12.2 10
15:25 1022 30.18 851 25.13 -7 19.4 66 -12.3 9.9
15:30 1022 30.18 851 25.13 -7.1 19.3 67 -12.2 10.1
15:35 1022 30.18 851 25.13 -6.9 19.5 67 -12.1 10.1
15:40 1022 30.18 851 25.13 -6.7 20 66 -12.1 10.2
15:45 1022 30.18 851 25.13 -6.5 20.3 63 -12.4 9.7
15:50 1022 30.18 851 25.13 -6.6 20.2 63 -12.6 9.4
15:55 1022 30.18 851 25.13 -6.5 20.3 62 -12.6 9.3
16:00 1022 30.18 851 25.13 -6.6 20.2 63 -12.5 9.4
16:05 1022 30.18 851 25.13 -6.7 20 64 -12.4 9.6
16:10 1022 30.18 851 25.13 -6.7 19.9 63 -12.6 9.2
16:15 1022 30.18 851 25.13 -6.6 20.1 60 -13.1 8.4
16:20 1022 30.18 851 25.13 -6.4 20.6 58 -13.2 8.2
16:25 1022 30.18 851 25.13 -6.8 19.7 62 -13 8.7
16:30 1022 30.18 851 25.13 -6.7 19.9 60 -13.2 8.3
16:35 1022 30.18 851 25.13 -7 19.4 62 -13.1 8.3
16:40 1022 30.18 852 25.16 -6.9 19.6 61 -13.2 8.3
16:45 1022 30.18 852 25.16 -6.9 19.6 61 -13.2 8.3
16:50 1022 30.18 852 25.16 -7 19.5 61 -13.2 8.3
16:55 1022 30.18 852 25.16 -7 19.4 61 -13.4 7.9
17:00 1022 30.18 852 25.16 -7 19.4 62 -13.2 8.3
17:05 1022 30.18 852 25.16 -7 19.3 62 -13.1 8.4
17:10 1022 30.18 852 25.16 -7.1 19.2 62 -13.2 8.2
17:15 1023 30.21 852 25.16 -7.2 19.1 61 -13.5 7.7
17:20 1023 30.21 852 25.16 -7.2 19 62 -13.4 7.9
17:25 1023 30.21 852 25.16 -7.3 18.8 62 -13.4 7.9
17:30 1023 30.21 852 25.16 -7.5 18.5 63 -13.3 8
17:35 1023 30.21 852 25.16 -7.7 18.2 65 -13.1 8.3
17:40 1023 30.21 852 25.16 -7.8 18 64 -13.4 7.9
17:45 1023 30.21 852 25.16 -7.9 17.9 65 -13.4 7.9
17:50 1023 30.21 852 25.16 -7.9 17.8 65 -13.4 8
17:55 1023 30.21 852 25.16 -8 17.7 66 -13.2 8.2
18:00 1023 30.21 852 25.16 -8.3 17.1 69 -13 8.6
18:05 1023 30.21 852 25.16 -8.8 16.2 69 -13.4 7.8
18:10 1023 30.21 852 25.16 -8.9 16 70 -13.4 7.8
18:15 1023 30.21 852 25.16 -8.9 16 70 -13.3 8
18:20 1023 30.21 852 25.16 -9 15.8 70 -13.5 7.8
18:25 1023 30.21 852 25.16 -8.9 16.1 70 -13.4 7.8
18:30 1023 30.21 852 25.16 -8.8 16.1 70 -13.4 7.9
18:35 1023 30.21 852 25.16 -8.9 16.1 69 -13.6 7.6
18:40 1023 30.21 852 25.16 -8.9 16.1 69 -13.6 7.5
18:45 1023 30.21 852 25.16 -8.8 16.2 68 -13.7 7.3
18:50 1023 30.21 852 25.16 -8.8 16.1 67 -14 6.8
18:55 1023 30.21 852 25.16 -8.8 16.1 67 -13.8 7.1
19:00 1023 30.21 852 25.16 -9 15.9 70 -13.4 7.8
19:05 1023 30.21 852 25.16 -9.1 15.6 70 -13.6 7.5
19:10 1023 30.21 852 25.16 -8.9 15.9 64 -14.5 5.9
19:15 1023 30.21 852 25.16 -8.6 16.6 64 -14.2 6.5
19:20 1023 30.21 852 25.16 -8.6 16.5 65 -14 6.7
19:25 1023 30.21 852 25.16 -8.7 16.3 68 -13.5 7.6
19:30 1023 30.21 852 25.16 -8.9 16 67 -13.9 7
19:35 1023 30.21 852 25.16 -8.9 16 67 -13.9 7
19:40 1023 30.21 853 25.19 -8.9 16 68 -13.9 7
19:45 1023 30.21 853 25.19 -8.9 16 69 -13.5 7.6
19:50 1024 30.24 853 25.19 -8.9 16.1 67 -13.9 6.9
19:55 1024 30.24 853 25.19 -8.6 16.5 67 -13.7 7.3
20:00 1024 30.24 853 25.19 -8.5 16.7 65 -13.9 7
20:05 1024 30.24 853 25.19 -8.4 16.8 66 -13.7 7.4
20:10 1024 30.24 853 25.19 -8.4 16.9 65 -13.8 7.1
20:15 1024 30.24 853 25.19 -8.3 17.1 63 -14.1 6.7
20:20 1024 30.24 853 25.19 -8.2 17.2 65 -13.7 7.3
20:25 1024 30.24 853 25.19 -8.2 17.2 66 -13.6 7.6
20:30 1024 30.24 853 25.19 -8.3 17.1 67 -13.4 7.8
20:35 1024 30.24 853 25.19 -8.4 17 69 -13.2 8.3
20:40 1024 30.24 853 25.19 -8.5 16.7 70 -13.1 8.4
20:45 1024 30.24 853 25.19 -8.7 16.3 71 -13 8.6
20:50 1024 30.24 853 25.19 -8.9 16 73 -12.9 8.8
20:55 1024 30.24 854 25.22 -9 15.9 74 -12.8 8.9
21:00 1024 30.24 854 25.22 -9.1 15.7 75 -12.8 9
21:05 1024 30.24 854 25.22 -9.1 15.6 74 -12.9 8.7
21:10 1024 30.24 854 25.22 -9.1 15.6 74 -12.9 8.7
21:15 1024 30.24 854 25.22 -9.1 15.7 75 -12.8 9
21:20 1024 30.24 854 25.22 -9 15.9 70 -13.4 7.8
21:25 1024 30.24 854 25.22 -8.7 16.4 72 -12.9 8.8
21:30 1025 30.27 854 25.22 -8.6 16.5 71 -13 8.6
21:35 1025 30.27 854 25.22 -8.7 16.4 72 -12.9 8.8
21:40 1025 30.27 854 25.22 -8.9 16 72 -13 8.6
21:45 1025 30.27 854 25.22 -9 15.8 72 -13.1 8.4
21:50 1025 30.27 854 25.22 -9.1 15.6 73 -13.2 8.3
21:55 1025 30.27 854 25.22 -9.2 15.5 73 -13.2 8.3
22:00 1025 30.27 854 25.22 -9.2 15.5 74 -13 8.6
22:05 1025 30.27 854 25.22 -9.1 15.6 75 -12.8 8.9
22:10 1025 30.27 854 25.22 -9.1 15.6 75 -12.7 9.1
22:15 1025 30.27 854 25.22 -9.1 15.6 76 -12.7 9.2
22:20 1025 30.27 854 25.22 -9.1 15.7 77 -12.5 9.6
22:25 1025 30.27 854 25.22 -9.1 15.7 77 -12.3 9.8
22:30 1025 30.27 854 25.22 -9.2 15.5 78 -12.4 9.7
22:35 1025 30.27 854 25.22 -9.2 15.4 79 -12.3 9.9
22:40 1025 30.27 854 25.22 -9.2 15.4 80 -12.1 10.2
22:45 1025 30.27 854 25.22 -9.2 15.5 80 -12 10.3
22:50 1025 30.27 854 25.22 -9.2 15.4 82 -11.8 10.7
22:55 1025 30.27 854 25.22 -9.2 15.4 82 -11.7 11
23:00 1025 30.27 854 25.22 -9.2 15.4 83 -11.6 11.1
23:05 1025 30.27 854 25.22 -9.2 15.5 83 -11.5 11.3
23:10 1025 30.27 854 25.22 -9.2 15.5 84 -11.4 11.4
23:15 1025 30.27 854 25.22 -9.1 15.6 84 -11.4 11.4
23:20 1025 30.27 854 25.22 -9.2 15.5 84 -11.5 11.4
23:25 1025 30.27 854 25.22 -9.2 15.4 84 -11.5 11.3
23:30 1025 30.27 854 25.22 -9.2 15.4 84 -11.5 11.3
23:35 1025 30.27 854 25.22 -9.2 15.4 84 -11.5 11.3
23:40 1025 30.27 854 25.22 -9.2 15.5 84 -11.5 11.3
23:45 1025 30.27 854 25.22 -9.2 15.4 84 -11.4 11.5
23:50 1025 30.27 854 25.22 -9.2 15.5 85 -11.3 11.7
23:55 1025 30.27 854 25.22 -9.2 15.5 85 -11.2 11.8
24:00 1025 30.27 854 25.22 -9.2 15.5 85 -11.2 11.8